Capitol Logistics 36




PHNL
Daniel K Inouye International Airport
Honolulu, Hawaii
KMIA
Miami International Airport
Miami, Florida

Activity Log

Date Flight Route Aircraft Duration
No Flights Yet

Route Details

Aircraft Information
Group: Trans-Pacific Ops
Types: B744,B763,MD11
Route Data
Demand: H
Distance: 4223nm
Duration: 9h 05m
Recm'd Route: MKK4 CLUTS R465 CIVIT R585 AUDIA SNAXX FIM PDZ J50 KOFFA J169 TFD J50 ELP J2 JCT J86 LEV Q102 BLVNS Y290 GAWKS FROGZ1
Origin Wx: PHNL 270653Z 08007KT 10SM FEW033 FEW050 24/16 A3000 RMK AO2 SLP160 T02440161
Dest. Wx: KMIA 270653Z 11005KT 10SM FEW060 SCT090 26/23 A3002 RMK AO2 SLP166 T02560228 $
Notes:

Financial History
Total Freight: 0lbs
Average Load: 0lbs/flt
Fuel Used: 0lbs
Avg. Fuel Used: 0lbs/flt
Fuel Expense: $0
Avg. Fuel Expense: $0
Avg. Fuel Cost: $0/lbs
Total Gross Income: $0
Pilot Pay: $0
Total Expenses: $0
Total Revenue: $0
Average Revenue: $0